createdAt,value
2022-08-24T00:02:20.844Z,53.38
2022-08-24T00:04:52.127Z,52.04
2022-08-24T00:07:27.855Z,52.90
2022-08-24T00:09:55.231Z,52.90
2022-08-24T00:12:25.649Z,53.09
2022-08-24T00:14:56.640Z,53.80
2022-08-24T00:17:27.182Z,53.17
2022-08-24T00:19:57.703Z,52.38
2022-08-24T00:22:28.260Z,52.38
2022-08-24T00:24:58.862Z,52.41
2022-08-24T00:27:29.386Z,52.18
2022-08-24T00:30:00.204Z,52.74
2022-08-24T00:32:31.198Z,53.09
2022-08-24T00:35:01.690Z,52.35
2022-08-24T00:37:32.342Z,52.41
2022-08-24T00:40:04.658Z,52.41
2022-08-24T00:42:35.330Z,52.01
2022-08-24T00:45:08.712Z,51.72
2022-08-24T00:48:00.349Z,51.72
2022-08-24T00:50:41.110Z,53.23
2022-08-24T00:53:14.423Z,53.23
2022-08-24T00:55:47.749Z,52.57
2022-08-24T00:58:22.059Z,53.15
2022-08-24T01:00:58.662Z,52.47
2022-08-24T01:03:30.247Z,53.27
2022-08-24T01:06:01.109Z,52.71
2022-08-24T01:08:32.072Z,52.30
2022-08-24T01:11:06.161Z,52.30
2022-08-24T01:13:36.727Z,52.77
2022-08-24T01:16:09.008Z,52.69
2022-08-24T01:18:40.531Z,53.25
2022-08-24T01:21:26.243Z,54.35
2022-08-24T01:26:52.647Z,53.13
2022-08-24T01:29:26.174Z,54.77
2022-08-24T01:31:57.155Z,53.78
2022-08-24T01:34:28.175Z,53.31
2022-08-24T01:36:59.794Z,54.02
2022-08-24T01:39:33.291Z,53.84
2022-08-24T01:42:04.774Z,54.72
2022-08-24T01:44:38.254Z,54.72
2022-08-24T01:47:11.409Z,53.94
2022-08-24T01:49:45.321Z,53.58
2022-08-24T01:52:18.801Z,54.10
2022-08-24T01:54:49.480Z,54.10
2022-08-24T01:57:20.594Z,53.27
2022-08-24T01:59:53.885Z,55.00
2022-08-24T02:02:27.657Z,54.30
2022-08-24T02:04:58.604Z,54.98
2022-08-24T02:07:29.071Z,53.62
2022-08-24T02:09:59.821Z,53.78
2022-08-24T02:12:30.355Z,53.96
2022-08-24T02:15:00.952Z,53.96
2022-08-24T02:17:31.979Z,53.75
2022-08-24T02:20:03.054Z,53.75
2022-08-24T02:22:34.026Z,53.52
2022-08-24T02:25:04.969Z,53.11
2022-08-24T02:27:35.651Z,53.08
2022-08-24T02:30:07.823Z,54.11
2022-08-24T02:32:38.193Z,53.94
2022-08-24T02:35:09.525Z,53.94
2022-08-24T02:37:43.249Z,53.74
2022-08-24T02:40:13.180Z,53.74
2022-08-24T02:42:43.656Z,53.92
2022-08-24T02:45:14.262Z,52.90
2022-08-24T02:47:45.257Z,52.90
2022-08-24T02:50:17.803Z,53.03
2022-08-24T02:52:48.758Z,53.22
2022-08-24T02:55:20.567Z,53.13
2022-08-24T02:57:51.313Z,53.25
2022-08-24T03:00:24.192Z,53.25
2022-08-24T03:02:57.357Z,52.90
2022-08-24T03:05:30.066Z,53.06
2022-08-24T03:08:01.372Z,53.89
2022-08-24T03:10:32.060Z,53.92
2022-08-24T03:13:02.778Z,53.10
2022-08-24T03:15:33.693Z,53.10
2022-08-24T03:18:04.610Z,53.92
2022-08-24T03:20:35.561Z,53.92
2022-08-24T03:23:06.551Z,54.23
2022-08-24T03:25:37.752Z,53.85
2022-08-24T03:28:11.055Z,53.82
2022-08-24T03:30:42.212Z,54.20
2022-08-24T03:33:14.661Z,54.20
2022-08-24T03:35:45.785Z,54.16
2022-08-24T03:38:16.500Z,54.16
2022-08-24T03:40:47.008Z,53.96
2022-08-24T03:43:18.077Z,53.96
2022-08-24T03:45:51.684Z,54.18
2022-08-24T03:48:22.253Z,53.81
2022-08-24T03:50:52.925Z,53.81
2022-08-24T03:53:23.885Z,55.55
2022-08-24T03:55:54.350Z,55.67
2022-08-24T03:58:24.915Z,55.67
2022-08-24T04:00:57.332Z,55.84
2022-08-24T04:03:27.846Z,54.80
2022-08-24T04:05:59.982Z,54.37
2022-08-24T04:08:31.492Z,54.37
2022-08-24T04:11:02.678Z,55.53
2022-08-24T04:13:33.167Z,54.45
2022-08-24T04:16:09.329Z,55.54
2022-08-24T04:18:40.637Z,54.68
2022-08-24T04:21:19.793Z,54.30
2022-08-24T04:23:51.475Z,54.24
2022-08-24T04:26:43.914Z,54.11
2022-08-24T04:28:57.108Z,54.11
2022-08-24T04:31:28.612Z,54.00
2022-08-24T04:33:59.466Z,53.93
2022-08-24T04:36:30.007Z,53.93
2022-08-24T04:39:01.434Z,52.81
2022-08-24T04:41:32.018Z,54.65
2022-08-24T04:44:03.904Z,54.65
2022-08-24T04:46:35.108Z,53.66
2022-08-24T04:49:05.696Z,54.43
2022-08-24T04:51:37.904Z,54.43
2022-08-24T04:54:09.272Z,53.87
2022-08-24T04:56:40.047Z,53.87
2022-08-24T04:59:10.552Z,52.15
2022-08-24T05:01:42.580Z,53.02
2022-08-24T05:04:13.461Z,53.02
2022-08-24T05:06:45.395Z,52.84
2022-08-24T05:09:15.888Z,52.59
2022-08-24T05:11:50.042Z,51.90
2022-08-24T05:14:26.724Z,50.65
2022-08-24T05:16:58.864Z,48.92
2022-08-24T05:19:29.580Z,48.92
2022-08-24T05:22:00.887Z,47.81
2022-08-24T05:24:31.803Z,49.72
2022-08-24T05:27:02.464Z,48.77
2022-08-24T05:29:33.350Z,47.64
2022-08-24T05:32:05.234Z,47.77
2022-08-24T05:34:36.155Z,45.91
2022-08-24T05:37:06.523Z,45.91
2022-08-24T05:39:37.412Z,44.04
2022-08-24T05:42:07.896Z,45.15
2022-08-24T05:44:38.537Z,44.11
2022-08-24T05:47:12.128Z,42.81
2022-08-24T05:49:42.805Z,43.62
2022-08-24T05:52:13.641Z,43.62
2022-08-24T05:54:44.173Z,42.47
2022-08-24T05:57:14.502Z,42.47
2022-08-24T05:59:45.132Z,42.01
2022-08-24T06:02:16.480Z,39.96
2022-08-24T06:04:47.992Z,39.96
2022-08-24T06:07:19.239Z,39.64
2022-08-24T06:09:49.642Z,37.51
2022-08-24T06:12:21.175Z,37.51
2022-08-24T06:14:51.797Z,35.30
2022-08-24T06:17:22.484Z,35.86
2022-08-24T06:19:54.696Z,35.01
2022-08-24T06:22:28.228Z,33.46
2022-08-24T06:24:59.226Z,33.97
2022-08-24T06:27:30.430Z,33.97
2022-08-24T06:30:06.659Z,33.57
2022-08-24T06:32:38.055Z,32.83
2022-08-24T06:35:11.510Z,32.83
2022-08-24T06:37:42.387Z,33.54
2022-08-24T06:40:13.116Z,32.73
2022-08-24T06:42:43.843Z,32.05
2022-08-24T06:45:14.473Z,32.35
2022-08-24T06:47:45.981Z,32.79
2022-08-24T06:50:16.606Z,31.29
2022-08-24T06:52:49.976Z,32.02
2022-08-24T06:55:20.462Z,30.84
2022-08-24T06:57:52.619Z,30.84
2022-08-24T07:00:23.777Z,31.45
2022-08-24T07:02:55.500Z,31.99
2022-08-24T07:05:26.153Z,30.89
2022-08-24T07:07:57.001Z,31.08
2022-08-24T07:10:28.990Z,30.13
2022-08-24T07:12:59.964Z,30.13
2022-08-24T07:15:30.910Z,30.30
2022-08-24T07:18:01.576Z,29.03
2022-08-24T07:20:32.412Z,30.25
2022-08-24T07:23:06.021Z,30.25
2022-08-24T07:25:36.712Z,30.25
2022-08-24T07:28:10.135Z,28.95
2022-08-24T07:30:43.918Z,30.45
2022-08-24T07:33:14.419Z,29.62
2022-08-24T07:35:44.824Z,29.26
2022-08-24T07:38:15.422Z,28.38
2022-08-24T07:41:05.461Z,27.94
2022-08-24T07:43:19.835Z,30.39
2022-08-24T07:45:51.192Z,28.52
2022-08-24T07:48:21.884Z,28.75
2022-08-24T07:50:52.549Z,28.75
2022-08-24T07:53:27.941Z,29.73
2022-08-24T07:55:57.645Z,29.06
2022-08-24T07:58:29.165Z,29.06
2022-08-24T08:01:00.598Z,27.20
2022-08-24T08:03:31.964Z,27.20
2022-08-24T08:06:06.269Z,27.77
2022-08-24T08:08:41.342Z,27.11
2022-08-24T08:11:13.109Z,27.11
2022-08-24T08:13:44.919Z,26.70
2022-08-24T08:16:17.119Z,26.89
2022-08-24T08:18:52.348Z,27.68
2022-08-24T08:21:20.473Z,25.82
2022-08-24T08:23:51.207Z,26.07
2022-08-24T08:26:22.176Z,25.85
2022-08-24T08:28:52.894Z,25.85
2022-08-24T08:31:23.476Z,27.40
2022-08-24T08:33:54.036Z,26.27
2022-08-24T08:36:24.710Z,26.27
2022-08-24T08:38:57.772Z,25.79
2022-08-24T08:41:37.388Z,25.79
2022-08-24T08:47:22.079Z,25.70
2022-08-24T08:50:16.890Z,25.91
2022-08-24T08:53:13.892Z,25.91
2022-08-24T08:56:11.627Z,24.38
2022-08-24T08:58:53.794Z,24.38
2022-08-24T09:01:47.154Z,25.23
2022-08-24T09:04:36.821Z,25.86
2022-08-24T09:07:14.371Z,25.86
2022-08-24T09:10:02.319Z,24.33
2022-08-24T09:12:38.320Z,25.48
2022-08-24T09:15:45.183Z,24.37
2022-08-24T09:18:31.143Z,24.37
2022-08-24T09:21:07.639Z,27.10
2022-08-24T09:24:09.392Z,25.12
2022-08-24T09:27:18.458Z,26.74
2022-08-24T09:30:07.537Z,26.59
2022-08-24T09:32:55.172Z,25.38
2022-08-24T09:35:35.744Z,25.10
2022-08-24T09:38:33.250Z,24.80
2022-08-24T09:41:14.036Z,24.80
2022-08-24T09:44:05.841Z,24.56
2022-08-24T09:47:14.630Z,24.45
2022-08-24T09:50:05.952Z,26.66
2022-08-24T09:53:13.465Z,23.67
2022-08-24T09:56:03.460Z,23.36
2022-08-24T09:59:03.927Z,24.05
2022-08-24T10:01:43.666Z,24.60
2022-08-24T10:04:37.700Z,23.81
2022-08-24T10:07:20.080Z,23.81
2022-08-24T10:10:00.180Z,23.69
2022-08-24T10:12:36.128Z,25.84
2022-08-24T10:18:14.658Z,23.27
2022-08-24T10:21:04.772Z,22.16
2022-08-24T10:23:59.260Z,23.21
2022-08-24T10:26:35.278Z,23.21
2022-08-24T10:29:24.050Z,25.49
2022-08-24T10:32:06.504Z,23.32
2022-08-24T10:38:01.192Z,24.24
2022-08-24T10:40:37.861Z,23.03
2022-08-24T10:43:30.500Z,22.55
2022-08-24T10:46:13.198Z,25.18
2022-08-24T10:49:03.073Z,22.24
2022-08-24T10:51:58.922Z,22.24
2022-08-24T10:54:32.651Z,23.28
2022-08-24T10:57:12.463Z,23.56
2022-08-24T10:59:48.064Z,24.78
2022-08-24T11:02:37.146Z,22.94
2022-08-24T11:05:11.021Z,22.94
2022-08-24T11:07:59.826Z,22.60
2022-08-24T11:10:36.311Z,23.64
2022-08-24T11:13:25.799Z,23.66
2022-08-24T11:15:59.429Z,22.65
2022-08-24T11:18:50.085Z,22.59
2022-08-24T11:21:41.457Z,23.39
2022-08-24T11:24:29.674Z,22.83
2022-08-24T11:27:08.943Z,22.83
2022-08-24T11:29:54.645Z,21.92
2022-08-24T11:32:45.219Z,22.24
2022-08-24T11:35:36.964Z,22.87
2022-08-24T11:38:29.836Z,21.51
2022-08-24T11:41:22.774Z,21.83
2022-08-24T11:44:06.695Z,22.11
2022-08-24T11:46:44.875Z,22.08
2022-08-24T11:49:46.237Z,22.08
2022-08-24T11:55:45.384Z,21.21
2022-08-24T11:58:20.840Z,21.21
2022-08-24T12:01:00.150Z,21.26
2022-08-24T12:03:53.685Z,20.79
2022-08-24T12:06:58.789Z,22.11
2022-08-24T12:09:36.751Z,21.01
2022-08-24T12:12:43.007Z,20.70
2022-08-24T12:15:25.219Z,20.50
2022-08-24T12:18:13.340Z,21.33
2022-08-24T12:20:48.400Z,21.13
2022-08-24T12:23:39.911Z,21.01
2022-08-24T12:26:28.178Z,21.01
2022-08-24T12:29:05.142Z,20.95
2022-08-24T12:31:49.063Z,20.95
2022-08-24T12:34:36.403Z,22.51
2022-08-24T12:37:29.486Z,21.03
2022-08-24T12:40:05.714Z,19.93
2022-08-24T12:42:46.571Z,21.02
2022-08-24T12:45:19.662Z,21.02
2022-08-24T12:47:59.055Z,20.18
2022-08-24T12:50:32.882Z,19.96
2022-08-24T12:53:13.613Z,20.88
2022-08-24T12:55:54.677Z,20.33
2022-08-24T12:58:53.781Z,20.44
2022-08-24T13:01:17.131Z,20.99
2022-08-24T13:03:51.151Z,20.40
2022-08-24T13:06:30.994Z,20.14
2022-08-24T13:09:10.815Z,20.73
2022-08-24T13:11:43.691Z,20.43
2022-08-24T13:14:19.780Z,20.65
2022-08-24T13:16:59.657Z,19.20
2022-08-24T13:19:36.723Z,20.36
2022-08-24T13:22:14.702Z,20.36
2022-08-24T13:24:59.969Z,19.23
2022-08-24T13:27:43.413Z,19.39
2022-08-24T13:33:21.084Z,18.80
2022-08-24T13:35:57.955Z,18.80
2022-08-24T13:38:42.550Z,19.35
2022-08-24T13:41:18.592Z,19.22
2022-08-24T13:44:03.729Z,19.22
2022-08-24T13:46:47.692Z,19.20
2022-08-24T13:49:27.301Z,19.92
2022-08-24T13:52:15.692Z,19.92
2022-08-24T13:55:13.581Z,19.13
2022-08-24T13:58:21.176Z,19.97
2022-08-24T14:01:09.731Z,20.04
2022-08-24T14:03:52.198Z,19.72
2022-08-24T14:06:25.428Z,20.21
2022-08-24T14:09:17.702Z,20.22
2022-08-24T14:12:08.961Z,21.09
2022-08-24T14:14:47.769Z,21.09
2022-08-24T14:17:35.782Z,20.57
2022-08-24T14:20:24.410Z,20.68
2022-08-24T14:23:23.087Z,20.68
2022-08-24T14:26:14.025Z,21.87
2022-08-24T14:28:45.663Z,20.98
2022-08-24T14:31:25.250Z,21.43
2022-08-24T14:34:24.190Z,21.39
2022-08-24T14:37:19.608Z,21.39
2022-08-24T14:40:15.580Z,22.29
2022-08-24T14:43:01.281Z,23.30
2022-08-24T14:45:46.537Z,23.50
2022-08-24T14:48:19.950Z,24.01
2022-08-24T14:51:16.854Z,24.92
2022-08-24T14:54:06.563Z,24.92
2022-08-24T14:56:52.651Z,25.28
2022-08-24T14:59:26.169Z,25.28
2022-08-24T15:02:16.514Z,25.36
2022-08-24T15:04:57.751Z,25.36
2022-08-24T15:07:32.859Z,26.62
2022-08-24T15:10:07.278Z,26.82
2022-08-24T15:12:42.435Z,26.82
2022-08-24T15:15:34.167Z,26.87
2022-08-24T15:18:20.535Z,26.87
2022-08-24T15:20:59.672Z,27.63
2022-08-24T15:23:41.943Z,27.63
2022-08-24T15:26:15.425Z,26.87
2022-08-24T15:28:56.316Z,25.71
2022-08-24T15:31:26.962Z,27.20
2022-08-24T15:34:00.336Z,27.20
2022-08-24T15:36:33.498Z,27.53
2022-08-24T15:39:06.345Z,26.51
2022-08-24T15:41:41.949Z,26.51
2022-08-24T15:44:20.625Z,27.01
2022-08-24T15:46:59.537Z,26.87
2022-08-24T15:49:35.647Z,26.87
2022-08-24T15:52:12.659Z,27.47
2022-08-24T15:54:46.197Z,27.67
2022-08-24T15:57:22.539Z,28.14
2022-08-24T15:59:55.389Z,27.57
2022-08-24T16:02:29.258Z,27.99
2022-08-24T16:05:21.289Z,28.93
2022-08-24T16:08:07.652Z,29.81
2022-08-24T16:10:41.561Z,30.22
2022-08-24T16:13:26.002Z,30.22
2022-08-24T16:16:02.805Z,29.02
2022-08-24T16:18:54.389Z,29.02
2022-08-24T16:24:43.244Z,29.51
2022-08-24T16:27:17.920Z,29.22
2022-08-24T16:29:52.395Z,29.15
2022-08-24T16:32:49.773Z,29.25
2022-08-24T16:35:11.613Z,29.35
2022-08-24T16:37:45.235Z,29.35
2022-08-24T16:40:16.366Z,29.36
2022-08-24T16:42:48.441Z,29.67
2022-08-24T16:45:21.470Z,29.67
2022-08-24T16:47:53.103Z,30.53
2022-08-24T16:50:27.300Z,30.53
2022-08-24T16:52:56.587Z,30.24
2022-08-24T16:55:27.730Z,30.01
2022-08-24T16:57:58.946Z,30.40
2022-08-24T17:00:29.683Z,30.40
2022-08-24T17:03:00.202Z,30.31
2022-08-24T17:05:30.716Z,30.72
2022-08-24T17:08:02.133Z,30.31
2022-08-24T17:10:37.741Z,31.02
2022-08-24T17:13:05.527Z,30.79
2022-08-24T17:15:37.006Z,30.75
2022-08-24T17:18:10.035Z,30.14
2022-08-24T17:20:41.928Z,31.95
2022-08-24T17:23:13.427Z,31.55
2022-08-24T17:25:43.907Z,32.83
2022-08-24T17:28:17.425Z,32.83
2022-08-24T17:30:51.330Z,31.50
2022-08-24T17:33:19.948Z,31.96
2022-08-24T17:35:55.501Z,32.85
2022-08-24T17:38:26.011Z,32.85
2022-08-24T17:40:57.425Z,31.56
2022-08-24T17:43:28.109Z,31.15
2022-08-24T17:45:58.735Z,31.13
2022-08-24T17:48:32.077Z,31.13
2022-08-24T17:51:03.412Z,30.53
2022-08-24T17:53:36.850Z,29.98
2022-08-24T17:56:17.175Z,29.98
2022-08-24T17:58:47.917Z,30.45
2022-08-24T18:01:19.030Z,30.19
2022-08-24T18:03:52.223Z,30.71
2022-08-24T18:06:24.925Z,30.95
2022-08-24T18:08:56.620Z,31.32
2022-08-24T18:11:27.261Z,32.38
2022-08-24T18:13:57.950Z,30.69
2022-08-24T18:16:29.471Z,30.69
2022-08-24T18:19:01.799Z,32.03
2022-08-24T18:21:33.016Z,32.24
2022-08-24T18:24:03.960Z,32.24
2022-08-24T18:26:35.373Z,31.82
2022-08-24T18:29:17.935Z,31.82
2022-08-24T18:31:52.715Z,31.24
2022-08-24T18:34:23.766Z,30.67
2022-08-24T18:36:55.696Z,30.50
2022-08-24T18:39:26.389Z,30.91
2022-08-24T18:41:59.053Z,31.73
2022-08-24T18:44:31.868Z,32.60
2022-08-24T18:47:04.400Z,33.27
2022-08-24T18:49:38.291Z,33.27
2022-08-24T18:52:12.076Z,32.61
2022-08-24T18:54:44.790Z,32.61
2022-08-24T18:57:40.661Z,32.14
2022-08-24T19:00:18.225Z,31.29
2022-08-24T19:02:48.778Z,31.29
2022-08-24T19:05:25.459Z,32.54
2022-08-24T19:08:04.222Z,31.30
2022-08-24T19:10:38.137Z,31.30
2022-08-24T19:13:13.561Z,32.41
2022-08-24T19:15:45.852Z,32.41
2022-08-24T19:18:24.853Z,31.14
2022-08-24T19:20:58.154Z,30.63
2022-08-24T19:23:32.180Z,34.03
2022-08-24T19:26:04.777Z,34.23
2022-08-24T19:28:39.384Z,32.57
2022-08-24T19:31:12.840Z,32.57
2022-08-24T19:33:49.806Z,31.64
2022-08-24T19:36:21.021Z,31.64
2022-08-24T19:38:51.635Z,31.62
2022-08-24T19:41:35.288Z,32.17
2022-08-24T19:44:06.413Z,34.26
2022-08-24T19:46:37.896Z,34.26
2022-08-24T19:49:09.880Z,35.22
2022-08-24T19:51:42.232Z,34.33
2022-08-24T19:54:12.878Z,33.83
2022-08-24T19:56:43.851Z,33.33
2022-08-24T19:59:30.124Z,35.66
2022-08-24T20:02:05.067Z,34.96
2022-08-24T20:04:35.893Z,34.32
2022-08-24T20:07:06.475Z,34.32
2022-08-24T20:09:37.238Z,36.15
2022-08-24T20:12:09.276Z,33.74
2022-08-24T20:14:41.104Z,35.56
2022-08-24T20:17:15.406Z,35.56
2022-08-24T20:19:48.637Z,36.26
2022-08-24T20:22:19.639Z,36.44
2022-08-24T20:24:50.402Z,35.32
2022-08-24T20:27:27.152Z,36.97
2022-08-24T20:29:57.911Z,36.95
2022-08-24T20:32:28.682Z,35.98
2022-08-24T20:34:59.104Z,35.98
2022-08-24T20:37:32.363Z,35.73
2022-08-24T20:40:04.339Z,35.73
2022-08-24T20:42:35.095Z,37.83
2022-08-24T20:45:08.337Z,37.27
2022-08-24T20:47:47.833Z,36.36
2022-08-24T20:50:21.752Z,36.36
2022-08-24T20:52:54.849Z,40.35
2022-08-24T20:55:26.491Z,40.35
2022-08-24T20:57:58.984Z,39.83
2022-08-24T21:00:30.507Z,39.83
2022-08-24T21:03:01.009Z,38.69
2022-08-24T21:05:31.770Z,38.73
2022-08-24T21:08:02.447Z,41.04
2022-08-24T21:10:37.008Z,37.28
2022-08-24T21:13:07.797Z,40.80
2022-08-24T21:15:39.181Z,40.80
2022-08-24T21:18:09.785Z,40.05
2022-08-24T21:20:44.651Z,38.84
2022-08-24T21:23:13.616Z,40.59
2022-08-24T21:25:44.191Z,40.47
2022-08-24T21:28:16.786Z,40.47
2022-08-24T21:30:48.069Z,41.32
2022-08-24T21:33:22.633Z,42.18
2022-08-24T21:35:51.680Z,40.80
2022-08-24T21:38:22.129Z,40.80
2022-08-24T21:40:53.168Z,41.16
2022-08-24T21:43:23.504Z,41.33
2022-08-24T21:45:55.174Z,42.29
2022-08-24T21:48:25.570Z,42.99
2022-08-24T21:50:56.154Z,41.59
2022-08-24T21:53:28.634Z,41.59
2022-08-24T21:56:01.228Z,41.75
2022-08-24T21:58:31.919Z,42.01
2022-08-24T22:01:02.796Z,42.01
2022-08-24T22:03:39.929Z,43.45
2022-08-24T22:06:07.957Z,43.64
2022-08-24T22:08:41.820Z,43.22
2022-08-24T22:11:15.230Z,44.12
2022-08-24T22:13:47.296Z,44.12
2022-08-24T22:16:20.118Z,43.43
2022-08-24T22:18:50.578Z,43.43
2022-08-24T22:21:23.726Z,43.44
2022-08-24T22:23:55.271Z,42.22
2022-08-24T22:26:28.807Z,42.22
2022-08-24T22:29:00.619Z,42.63
2022-08-24T22:31:33.957Z,43.86
2022-08-24T22:34:07.785Z,43.86
2022-08-24T22:36:38.821Z,42.45
2022-08-24T22:39:11.840Z,42.98
2022-08-24T22:41:42.742Z,43.78
2022-08-24T22:44:13.571Z,43.78
2022-08-24T22:46:44.495Z,43.43
2022-08-24T22:49:15.355Z,43.28
2022-08-24T22:51:46.147Z,43.28
2022-08-24T22:54:18.141Z,45.12
2022-08-24T22:56:52.115Z,44.78
2022-08-24T22:59:25.607Z,44.78
2022-08-24T23:01:57.633Z,43.89
2022-08-24T23:04:31.278Z,43.87
2022-08-24T23:07:05.694Z,45.94
2022-08-24T23:09:43.963Z,44.24
2022-08-24T23:12:13.284Z,46.98
2022-08-24T23:14:45.291Z,46.98
2022-08-24T23:17:15.843Z,44.91
2022-08-24T23:19:46.430Z,44.91
2022-08-24T23:22:19.429Z,45.32
2022-08-24T23:24:49.821Z,43.88
2022-08-24T23:27:20.398Z,43.88
2022-08-24T23:29:51.092Z,45.84
2022-08-24T23:32:21.736Z,46.14
2022-08-24T23:34:55.156Z,46.03
2022-08-24T23:37:25.998Z,46.83
2022-08-24T23:39:57.788Z,46.27
2022-08-24T23:42:28.340Z,47.31
2022-08-24T23:44:58.883Z,45.16
2022-08-24T23:47:30.495Z,45.16
2022-08-24T23:50:02.761Z,46.86
2022-08-24T23:52:35.558Z,46.14
2022-08-24T23:55:20.637Z,47.14
2022-08-24T23:57:38.842Z,46.77
